Time;durP1;ratioP1;P1;durP2;ratioP2;P2;SDS_P1;SDS_P2;PMS_P1;PMS_P2;Temp;Humidity;BMP_temperature;BMP_pressure;BME280_temperature;BME280_humidity;BME280_pressure;Samples;Min_cycle;Max_cycle;Signal;HPM_P1;HPM_P2
2022/09/24 00:00:10;;;;;;;;;;;;;;;;;;350139;28;1088;-65
2022/09/24 00:00:20;;;;;;;;;;;;;;;;;;350140;28;1015;-65
2022/09/24 00:00:31;;;;;;;;;;;;;;;;;;350131;28;968;-65
2022/09/24 00:00:41;;;;;;;;;;;;;;;;;;350083;28;1833;-65
2022/09/24 00:00:52;;;;;;;;;;;;;;;;;;350116;28;917;-65
2022/09/24 00:01:11;;;;;;;;;;;;;;;;;;350115;28;1027;-65
2022/09/24 00:01:24;;;;;;;;;;;;;;;;;;350144;28;861;-65
2022/09/24 00:01:34;;;;;;;;;;;;;;;;;;350134;28;846;-64
2022/09/24 00:01:45;;;;;;;;;;;;;;;;;;350130;28;810;-65
2022/09/24 00:01:55;;;;;;;;;;;;;;;;;;350191;28;975;-65
2022/09/24 00:02:05;;;;;;;;;;;;;;;;;;350048;28;968;-65
2022/09/24 00:02:16;;;;;;;;;;;;;;;;;;350110;28;917;-65
2022/09/24 00:02:26;;;;;;;;;;;;;;;;;;350148;28;940;-65
2022/09/24 00:02:36;;;;;;;;;;;;;;;;;;350147;28;840;-65
2022/09/24 00:02:46;;;;;;;;;;;;;;;;;;350108;28;995;-65
2022/09/24 00:02:57;;;;;;;;;;;;;;;;;;350133;28;932;-65
2022/09/24 00:03:07;;;;;;;;;;;;;;;;;;350110;28;971;-65
2022/09/24 00:03:22;;;;;;;;;;;;;;;;;;350121;28;841;-65
2022/09/24 00:03:32;;;;;;;;;;;;;;;;;;350087;28;943;-65
2022/09/24 00:03:44;;;;;;;;;;;;;;;;;;350151;28;865;-64
2022/09/24 00:03:59;;;;;;;;;;;;;;;;;;350124;28;932;-65
2022/09/24 00:04:10;;;;;;;;;;;;;;;;;;350122;28;837;-65
2022/09/24 00:04:23;;;;;;;;;;;;;;;;;;350096;28;1002;-65
2022/09/24 00:04:34;;;;;;;;;;;;;;;;;;350205;28;955;-64
2022/09/24 00:04:44;;;;;;;;;;;;;;;;;;350112;28;1008;-65
2022/09/24 00:04:55;;;;;;;;;;;;;;;;;;350104;28;975;-65
2022/09/24 00:05:06;;;;;;;;;;;;;;;;;;350047;28;1384;-65
2022/09/24 00:05:16;;;;;;;;;;;;;;;;;;350075;28;909;-65
2022/09/24 00:05:26;;;;;;;;;;;;;;;;;;350147;28;917;-65
2022/09/24 00:05:37;;;;;;;;;;;;;;;;;;350059;28;1086;-65
2022/09/24 00:05:47;;;;;;;;;;;;;;;;;;350086;28;1027;-65
2022/09/24 00:06:00;;;;;;;;;;;;;;;;;;350027;28;1693;-65
2022/09/24 00:06:13;;;;;;;;;;;;;;;;;;350140;28;842;-65
2022/09/24 00:06:23;;;;;;;;;;;;;;;;;;350079;28;997;-65
2022/09/24 00:06:35;;;;;;;;;;;;;;;;;;350113;28;937;-65
2022/09/24 00:06:46;;;;;;;;;;;;;;;;;;350098;28;912;-65
2022/09/24 00:06:57;;;;;;;;;;;;;;;;;;350134;28;909;-65
2022/09/24 00:07:07;;;;;;;;;;;;;;;;;;350092;28;964;-65
2022/09/24 00:07:17;;;;;;;;;;;;;;;;;;350080;28;1127;-65
2022/09/24 00:07:27;;;;;;;;;;;;;;;;;;350087;28;818;-65
2022/09/24 00:07:37;;;;;;;;;;;;;;;;;;350142;28;916;-65
2022/09/24 00:07:48;;;;;;;;;;;;;;;;;;350086;28;960;-65
2022/09/24 00:07:58;;;;;;;;;;;;;;;;;;350102;28;842;-65
2022/09/24 00:08:08;;;;;;;;;;;;;;;;;;350076;28;948;-65
2022/09/24 00:08:19;;;;;;;;;;;;;;;;;;350121;28;975;-65
2022/09/24 00:08:29;;;;;;;;;;;;;;;;;;350084;28;853;-65
2022/09/24 00:08:40;;;;;;;;;;;;;;;;;;350123;28;925;-65
2022/09/24 00:08:53;;;;;;;;;;;;;;;;;;350065;28;980;-65
2022/09/24 00:09:03;;;;;;;;;;;;;;;;;;350126;28;1011;-64
2022/09/24 00:09:14;;;;;;;;;;;;;;;;;;350087;28;937;-65
2022/09/24 00:09:25;;;;;;;;;;;;;;;;;;350075;28;941;-65
2022/09/24 00:09:35;;;;;;;;;;;;;;;;;;350058;28;924;-65
2022/09/24 00:09:45;;;;;;;;;;;;;;;;;;350071;28;1007;-65
2022/09/24 00:09:55;;;;;;;;;;;;;;;;;;350115;28;862;-65
2022/09/24 00:10:06;;;;;;;;;;;;;;;;;;350093;28;980;-65
2022/09/24 00:10:16;;;;;;;;;;;;;;;;;;350203;28;829;-65
2022/09/24 00:10:26;;;;;;;;;;;;;;;;;;350079;28;984;-65
2022/09/24 00:10:38;;;;;;;;;;;;;;;;;;350098;28;957;-65
2022/09/24 00:10:48;;;;;;;;;;;;;;;;;;349477;28;1668;-65
2022/09/24 00:11:03;;;;;;;;;;;;;;;;;;350099;28;1356;-65
2022/09/24 00:11:15;;;;;;;;;;;;;;;;;;351507;28;964;-65
2022/09/24 00:11:26;;;;;;;;;;;;;;;;;;351460;28;951;-65
2022/09/24 00:11:37;;;;;;;;;;;;;;;;;;351519;28;932;-65
2022/09/24 00:11:48;;;;;;;;;;;;;;;;;;351572;28;1031;-65
2022/09/24 00:12:01;;;;;;;;;;;;;;;;;;351522;28;975;-65
2022/09/24 00:12:12;;;;;;;;;;;;;;;;;;351462;28;944;-65
2022/09/24 00:12:22;;;;;;;;;;;;;;;;;;351457;28;996;-65
2022/09/24 00:12:33;;;;;;;;;;;;;;;;;;351472;28;972;-65
2022/09/24 00:12:43;;;;;;;;;;;;;;;;;;351516;28;944;-65
2022/09/24 00:12:53;;;;;;;;;;;;;;;;;;351526;28;777;-64
2022/09/24 00:13:05;;;;;;;;;;;;;;;;;;351559;28;967;-65
2022/09/24 00:13:17;;;;;;;;;;;;;;;;;;351444;28;1048;-65
2022/09/24 00:13:28;;;;;;;;;;;;;;;;;;351478;28;991;-65
2022/09/24 00:13:39;;;;;;;;;;;;;;;;;;351498;28;793;-65
2022/09/24 00:13:50;;;;;;;;;;;;;;;;;;351329;28;1531;-65
2022/09/24 00:14:00;;;;;;;;;;;;;;;;;;349106;28;1346;-65
2022/09/24 00:14:10;;;;;;;;;;;;;;;;;;350071;28;1027;-65
2022/09/24 00:14:21;;;;;;;;;;;;;;;;;;350122;28;956;-65
2022/09/24 00:14:31;;;;;;;;;;;;;;;;;;350087;28;955;-65
2022/09/24 00:14:41;;;;;;;;;;;;;;;;;;350108;28;988;-65
2022/09/24 00:14:51;;;;;;;;;;;;;;;;;;350143;28;967;-65
2022/09/24 00:15:02;;;;;;;;;;;;;;;;;;350100;28;916;-65
2022/09/24 00:15:12;;;;;;;;;;;;;;;;;;350111;28;833;-65
2022/09/24 00:15:22;;;;;;;;;;;;;;;;;;350112;28;932;-65
2022/09/24 00:15:39;;;;;;;;;;;;;;;;;;350125;28;872;-65
2022/09/24 00:15:50;;;;;;;;;;;;;;;;;;350078;28;981;-65
2022/09/24 00:16:02;;;;;;;;;;;;;;;;;;350102;28;798;-65
2022/09/24 00:16:14;;;;;;;;;;;;;;;;;;348899;28;1375;-65
2022/09/24 00:16:25;;;;;;;;;;;;;;;;;;350049;28;1961;-65
2022/09/24 00:16:35;;;;;;;;;;;;;;;;;;350068;28;1003;-65
2022/09/24 00:16:46;;;;;;;;;;;;;;;;;;350108;28;983;-65
2022/09/24 00:16:56;;;;;;;;;;;;;;;;;;350067;28;996;-65
2022/09/24 00:17:06;;;;;;;;;;;;;;;;;;350117;28;980;-65
2022/09/24 00:17:16;;;;;;;;;;;;;;;;;;350121;28;971;-65
2022/09/24 00:17:26;;;;;;;;;;;;;;;;;;350086;28;859;-65
2022/09/24 00:17:37;;;;;;;;;;;;;;;;;;350071;28;933;-64
2022/09/24 00:17:47;;;;;;;;;;;;;;;;;;350116;28;956;-65
2022/09/24 00:17:57;;;;;;;;;;;;;;;;;;350137;28;782;-65
2022/09/24 00:18:10;;;;;;;;;;;;;;;;;;350108;28;975;-65
2022/09/24 00:18:20;;;;;;;;;;;;;;;;;;350051;28;785;-65
2022/09/24 00:18:31;;;;;;;;;;;;;;;;;;350123;27;988;-65
2022/09/24 00:18:41;;;;;;;;;;;;;;;;;;350110;28;924;-65
2022/09/24 00:18:52;;;;;;;;;;;;;;;;;;350116;28;969;-65
2022/09/24 00:19:02;;;;;;;;;;;;;;;;;;350146;28;907;-65
2022/09/24 00:19:13;;;;;;;;;;;;;;;;;;350085;28;999;-65
2022/09/24 00:19:23;;;;;;;;;;;;;;;;;;350149;28;1039;-65
2022/09/24 00:19:33;;;;;;;;;;;;;;;;;;350064;28;991;-65
2022/09/24 00:19:44;;;;;;;;;;;;;;;;;;350124;28;913;-65
2022/09/24 00:19:54;;;;;;;;;;;;;;;;;;350076;28;944;-65
2022/09/24 00:20:04;;;;;;;;;;;;;;;;;;350097;28;941;-65
2022/09/24 00:20:14;;;;;;;;;;;;;;;;;;350086;28;956;-65
2022/09/24 00:20:25;;;;;;;;;;;;;;;;;;350095;28;963;-65
2022/09/24 00:20:35;;;;;;;;;;;;;;;;;;350065;28;1023;-65
2022/09/24 00:20:45;;;;;;;;;;;;;;;;;;350065;28;850;-65
2022/09/24 00:20:55;;;;;;;;;;;;;;;;;;350070;28;928;-65
2022/09/24 00:21:12;;;;;;;;;;;;;;;;;;351086;28;1330;-65
2022/09/24 00:21:23;;;;;;;;;;;;;;;;;;351503;28;980;-64
2022/09/24 00:21:34;;;;;;;;;;;;;;;;;;351522;28;881;-65
2022/09/24 00:21:45;;;;;;;;;;;;;;;;;;351499;28;908;-64
2022/09/24 00:21:55;;;;;;;;;;;;;;;;;;351471;28;987;-65
2022/09/24 00:22:05;;;;;;;;;;;;;;;;;;351482;28;917;-64
2022/09/24 00:22:15;;;;;;;;;;;;;;;;;;351504;28;924;-65
2022/09/24 00:22:25;;;;;;;;;;;;;;;;;;351437;28;998;-65
2022/09/24 00:22:36;;;;;;;;;;;;;;;;;;351490;28;905;-64
2022/09/24 00:22:46;;;;;;;;;;;;;;;;;;351413;28;1024;-64
2022/09/24 00:22:56;;;;;;;;;;;;;;;;;;351525;28;770;-64
2022/09/24 00:23:08;;;;;;;;;;;;;;;;;;351472;28;928;-65
2022/09/24 00:23:18;;;;;;;;;;;;;;;;;;349184;28;1488;-64
2022/09/24 00:23:28;;;;;;;;;;;;;;;;;;349807;28;772;-65
2022/09/24 00:23:39;;;;;;;;;;;;;;;;;;350072;28;987;-64
2022/09/24 00:23:53;;;;;;;;;;;;;;;;;;350121;28;925;-64
2022/09/24 00:24:07;;;;;;;;;;;;;;;;;;350064;28;933;-65
2022/09/24 00:26:50;;;;;;;;;;;;;;;;;;351437;28;999;-64
2022/09/24 00:27:01;;;;;;;;;;;;;;;;;;351468;28;952;-65
2022/09/24 00:27:11;;;;;;;;;;;;;;;;;;351519;28;778;-64
2022/09/24 00:27:22;;;;;;;;;;;;;;;;;;351446;28;932;-65
2022/09/24 00:27:32;;;;;;;;;;;;;;;;;;351472;28;909;-65
2022/09/24 00:27:42;;;;;;;;;;;;;;;;;;351529;28;829;-64
2022/09/24 00:27:52;;;;;;;;;;;;;;;;;;351492;28;967;-65
2022/09/24 00:28:02;;;;;;;;;;;;;;;;;;351532;28;900;-65
2022/09/24 00:28:13;;;;;;;;;;;;;;;;;;351489;28;972;-65
2022/09/24 00:28:23;;;;;;;;;;;;;;;;;;351466;28;936;-65
2022/09/24 00:28:33;;;;;;;;;;;;;;;;;;351464;28;897;-64
2022/09/24 00:28:43;;;;;;;;;;;;;;;;;;351403;28;1011;-65
2022/09/24 00:28:54;;;;;;;;;;;;;;;;;;351483;28;527;-65
2022/09/24 00:29:04;;;;;;;;;;;;;;;;;;351470;28;968;-64
2022/09/24 00:29:16;;;;;;;;;;;;;;;;;;351517;28;995;-64
2022/09/24 00:29:26;;;;;;;;;;;;;;;;;;351445;28;1043;-65
2022/09/24 00:29:36;;;;;;;;;;;;;;;;;;351494;28;964;-64
2022/09/24 00:29:46;;;;;;;;;;;;;;;;;;351463;28;793;-64
2022/09/24 00:29:57;;;;;;;;;;;;;;;;;;351478;28;979;-65
2022/09/24 00:30:07;;;;;;;;;;;;;;;;;;351495;28;983;-65
2022/09/24 00:30:17;;;;;;;;;;;;;;;;;;351442;28;1216;-65
2022/09/24 00:30:27;;;;;;;;;;;;;;;;;;351472;28;940;-65
2022/09/24 00:30:38;;;;;;;;;;;;;;;;;;351484;28;972;-65
2022/09/24 00:30:50;;;;;;;;;;;;;;;;;;351428;28;948;-64
2022/09/24 00:31:05;;;;;;;;;;;;;;;;;;351488;28;884;-64
2022/09/24 00:31:16;;;;;;;;;;;;;;;;;;351449;28;936;-65
2022/09/24 00:31:26;;;;;;;;;;;;;;;;;;351468;28;948;-65
2022/09/24 00:31:36;;;;;;;;;;;;;;;;;;351313;28;1258;-65
2022/09/24 00:31:47;;;;;;;;;;;;;;;;;;351484;28;979;-65
2022/09/24 00:31:57;;;;;;;;;;;;;;;;;;351476;28;948;-65
2022/09/24 00:32:09;;;;;;;;;;;;;;;;;;351449;28;920;-65
2022/09/24 00:32:20;;;;;;;;;;;;;;;;;;351456;28;1117;-64
2022/09/24 00:32:30;;;;;;;;;;;;;;;;;;351461;28;1019;-64
2022/09/24 00:32:40;;;;;;;;;;;;;;;;;;351499;28;841;-64
2022/09/24 00:32:50;;;;;;;;;;;;;;;;;;351506;28;963;-65
2022/09/24 00:33:01;;;;;;;;;;;;;;;;;;351419;28;975;-64
2022/09/24 00:33:11;;;;;;;;;;;;;;;;;;351429;28;1008;-65
2022/09/24 00:33:21;;;;;;;;;;;;;;;;;;351515;28;869;-65
2022/09/24 00:33:33;;;;;;;;;;;;;;;;;;351471;28;976;-65
2022/09/24 00:33:43;;;;;;;;;;;;;;;;;;351536;28;845;-65
2022/09/24 00:33:53;;;;;;;;;;;;;;;;;;350401;28;1288;-65
2022/09/24 00:34:04;;;;;;;;;;;;;;;;;;350057;28;1007;-65
2022/09/24 00:34:14;;;;;;;;;;;;;;;;;;350140;28;913;-65
2022/09/24 00:34:24;;;;;;;;;;;;;;;;;;350097;28;937;-65
2022/09/24 00:34:34;;;;;;;;;;;;;;;;;;350099;28;937;-65
2022/09/24 00:34:45;;;;;;;;;;;;;;;;;;349906;28;1406;-65
2022/09/24 00:34:55;;;;;;;;;;;;;;;;;;348994;28;1649;-64
2022/09/24 00:35:05;;;;;;;;;;;;;;;;;;350022;28;929;-64
2022/09/24 00:35:15;;;;;;;;;;;;;;;;;;350032;28;1007;-65
2022/09/24 00:35:25;;;;;;;;;;;;;;;;;;350095;28;925;-65
2022/09/24 00:35:37;;;;;;;;;;;;;;;;;;350096;28;980;-65
2022/09/24 00:35:47;;;;;;;;;;;;;;;;;;350022;28;952;-65
2022/09/24 00:35:58;;;;;;;;;;;;;;;;;;350068;28;794;-65
2022/09/24 00:36:08;;;;;;;;;;;;;;;;;;350108;28;952;-65
2022/09/24 00:36:20;;;;;;;;;;;;;;;;;;350066;28;953;-64
2022/09/24 00:36:30;;;;;;;;;;;;;;;;;;349998;28;1902;-65
2022/09/24 00:36:40;;;;;;;;;;;;;;;;;;350096;28;968;-64
2022/09/24 00:36:52;;;;;;;;;;;;;;;;;;349028;28;1367;-65
2022/09/24 00:37:02;;;;;;;;;;;;;;;;;;348667;28;953;-65
2022/09/24 00:37:12;;;;;;;;;;;;;;;;;;348694;28;824;-65
2022/09/24 00:37:23;;;;;;;;;;;;;;;;;;348668;28;928;-65
2022/09/24 00:37:33;;;;;;;;;;;;;;;;;;348716;28;977;-65
2022/09/24 00:37:43;;;;;;;;;;;;;;;;;;348693;28;972;-65
2022/09/24 00:37:54;;;;;;;;;;;;;;;;;;348782;28;1413;-65
2022/09/24 00:38:05;;;;;;;;;;;;;;;;;;350072;28;1795;-64
2022/09/24 00:38:15;;;;;;;;;;;;;;;;;;350100;28;801;-65
2022/09/24 00:38:25;;;;;;;;;;;;;;;;;;350056;28;964;-65
2022/09/24 00:38:35;;;;;;;;;;;;;;;;;;350112;28;984;-65
2022/09/24 00:38:53;;;;;;;;;;;;;;;;;;350106;28;842;-64
2022/09/24 00:39:04;;;;;;;;;;;;;;;;;;348989;28;1669;-65
2022/09/24 00:39:14;;;;;;;;;;;;;;;;;;350365;28;929;-64
2022/09/24 00:39:24;;;;;;;;;;;;;;;;;;351484;28;1007;-64
2022/09/24 00:39:35;;;;;;;;;;;;;;;;;;351425;28;940;-65
2022/09/24 00:39:45;;;;;;;;;;;;;;;;;;351436;28;1063;-64
2022/09/24 00:39:55;;;;;;;;;;;;;;;;;;351491;28;929;-65
2022/09/24 00:40:06;;;;;;;;;;;;;;;;;;351489;28;873;-65
2022/09/24 00:40:17;;;;;;;;;;;;;;;;;;351423;28;979;-64
2022/09/24 00:40:28;;;;;;;;;;;;;;;;;;351438;28;988;-64
2022/09/24 00:40:38;;;;;;;;;;;;;;;;;;351466;28;928;-64
2022/09/24 00:40:49;;;;;;;;;;;;;;;;;;351493;28;933;-64
2022/09/24 00:41:00;;;;;;;;;;;;;;;;;;351406;28;947;-65
2022/09/24 00:41:10;;;;;;;;;;;;;;;;;;351484;28;865;-64
2022/09/24 00:41:21;;;;;;;;;;;;;;;;;;351451;28;856;-65
2022/09/24 00:41:34;;;;;;;;;;;;;;;;;;351515;28;876;-65
2022/09/24 00:41:46;;;;;;;;;;;;;;;;;;351448;28;932;-65
2022/09/24 00:41:57;;;;;;;;;;;;;;;;;;351512;28;1059;-65
2022/09/24 00:42:08;;;;;;;;;;;;;;;;;;351434;28;1000;-65
2022/09/24 00:42:19;;;;;;;;;;;;;;;;;;351506;28;932;-65
2022/09/24 00:42:31;;;;;;;;;;;;;;;;;;351433;28;944;-65
2022/09/24 00:42:41;;;;;;;;;;;;;;;;;;351469;28;956;-64
2022/09/24 00:42:51;;;;;;;;;;;;;;;;;;351523;28;1032;-64
2022/09/24 00:43:19;;;;;;;;;;;;;;;;;;351460;28;904;-64
2022/09/24 00:43:37;;;;;;;;;;;;;;;;;;351456;28;968;-65
2022/09/24 00:43:48;;;;;;;;;;;;;;;;;;351507;28;988;-64
2022/09/24 00:43:58;;;;;;;;;;;;;;;;;;351452;28;963;-64
2022/09/24 00:44:27;;;;;;;;;;;;;;;;;;351426;28;944;-65
2022/09/24 00:44:40;;;;;;;;;;;;;;;;;;351428;28;988;-65
2022/09/24 00:44:52;;;;;;;;;;;;;;;;;;351465;28;987;-65
2022/09/24 00:45:04;;;;;;;;;;;;;;;;;;351471;28;920;-64
2022/09/24 00:45:14;;;;;;;;;;;;;;;;;;351420;28;991;-65
2022/09/24 00:45:26;;;;;;;;;;;;;;;;;;351472;28;855;-64
2022/09/24 00:45:36;;;;;;;;;;;;;;;;;;351526;28;792;-64
2022/09/24 00:45:47;;;;;;;;;;;;;;;;;;351495;28;849;-65
2022/09/24 00:46:06;;;;;;;;;;;;;;;;;;351427;28;962;-64
2022/09/24 00:46:19;;;;;;;;;;;;;;;;;;351498;28;777;-64
2022/09/24 00:46:47;;;;;;;;;;;;;;;;;;351495;28;794;-65
2022/09/24 00:46:57;;;;;;;;;;;;;;;;;;351476;28;1019;-64
2022/09/24 00:47:13;;;;;;;;;;;;;;;;;;351461;28;992;-65
2022/09/24 00:47:31;;;;;;;;;;;;;;;;;;351415;28;1027;-64
2022/09/24 00:47:42;;;;;;;;;;;;;;;;;;351281;28;1300;-65
2022/09/24 00:47:52;;;;;;;;;;;;;;;;;;351335;28;1456;-65
2022/09/24 00:48:02;;;;;;;;;;;;;;;;;;351311;28;875;-64
2022/09/24 00:48:13;;;;;;;;;;;;;;;;;;351363;28;931;-65
2022/09/24 00:48:24;;;;;;;;;;;;;;;;;;351378;28;994;-64
2022/09/24 00:48:36;;;;;;;;;;;;;;;;;;351385;28;860;-65
2022/09/24 00:48:47;;;;;;;;;;;;;;;;;;351253;28;1388;-65
2022/09/24 00:49:01;;;;;;;;;;;;;;;;;;351367;28;817;-64
2022/09/24 00:49:11;;;;;;;;;;;;;;;;;;351302;28;999;-65
2022/09/24 00:49:23;;;;;;;;;;;;;;;;;;351319;28;876;-64
2022/09/24 00:49:33;;;;;;;;;;;;;;;;;;351310;28;923;-65
2022/09/24 00:49:46;;;;;;;;;;;;;;;;;;351463;28;998;-64
2022/09/24 00:50:14;;;;;;;;;;;;;;;;;;351515;28;936;-64
2022/09/24 00:50:30;;;;;;;;;;;;;;;;;;351425;28;967;-65
2022/09/24 00:50:40;;;;;;;;;;;;;;;;;;351442;28;916;-65
2022/09/24 00:50:51;;;;;;;;;;;;;;;;;;351454;28;868;-64
2022/09/24 00:51:01;;;;;;;;;;;;;;;;;;351525;28;990;-65
2022/09/24 00:51:15;;;;;;;;;;;;;;;;;;351442;28;983;-64
2022/09/24 00:51:27;;;;;;;;;;;;;;;;;;351507;28;773;-64
2022/09/24 00:51:38;;;;;;;;;;;;;;;;;;351447;28;1199;-64
2022/09/24 00:51:50;;;;;;;;;;;;;;;;;;348564;28;1382;-65
2022/09/24 00:52:00;;;;;;;;;;;;;;;;;;350011;28;1004;-65
2022/09/24 00:52:10;;;;;;;;;;;;;;;;;;350079;28;873;-65
2022/09/24 00:52:21;;;;;;;;;;;;;;;;;;350062;28;919;-65
2022/09/24 00:52:32;;;;;;;;;;;;;;;;;;350104;28;946;-64
2022/09/24 00:52:47;;;;;;;;;;;;;;;;;;350059;28;1096;-64
2022/09/24 00:53:09;;;;;;;;;;;;;;;;;;350088;28;916;-65
2022/09/24 00:53:21;;;;;;;;;;;;;;;;;;350027;28;952;-64
2022/09/24 00:53:32;;;;;;;;;;;;;;;;;;350071;28;856;-64
2022/09/24 00:53:44;;;;;;;;;;;;;;;;;;350055;28;952;-64
2022/09/24 00:53:58;;;;;;;;;;;;;;;;;;348912;28;1446;-65
2022/09/24 00:54:11;;;;;;;;;;;;;;;;;;350069;28;920;-65
2022/09/24 00:54:25;;;;;;;;;;;;;;;;;;350028;28;999;-65
2022/09/24 00:54:36;;;;;;;;;;;;;;;;;;350071;28;1000;-65
2022/09/24 00:54:46;;;;;;;;;;;;;;;;;;350082;28;897;-64
2022/09/24 00:54:57;;;;;;;;;;;;;;;;;;350058;28;932;-65
2022/09/24 00:55:07;;;;;;;;;;;;;;;;;;350039;28;1008;-64
2022/09/24 00:55:18;;;;;;;;;;;;;;;;;;350082;28;1016;-64
2022/09/24 00:55:30;;;;;;;;;;;;;;;;;;350067;28;984;-64
2022/09/24 00:55:42;;;;;;;;;;;;;;;;;;350070;28;896;-65
2022/09/24 00:55:55;;;;;;;;;;;;;;;;;;349982;28;900;-65
2022/09/24 00:56:08;;;;;;;;;;;;;;;;;;350048;28;872;-65
2022/09/24 00:56:19;;;;;;;;;;;;;;;;;;350044;28;849;-64
2022/09/24 00:56:31;;;;;;;;;;;;;;;;;;349991;28;1968;-65
2022/09/24 00:56:43;;;;;;;;;;;;;;;;;;350004;28;991;-64
2022/09/24 00:56:56;;;;;;;;;;;;;;;;;;350068;28;1102;-64
2022/09/24 00:57:06;;;;;;;;;;;;;;;;;;350020;28;975;-65
2022/09/24 00:57:17;;;;;;;;;;;;;;;;;;350028;28;1027;-65
2022/09/24 00:57:27;;;;;;;;;;;;;;;;;;350037;28;1031;-64
2022/09/24 00:57:38;;;;;;;;;;;;;;;;;;350006;28;928;-64
2022/09/24 00:57:51;;;;;;;;;;;;;;;;;;350016;28;1023;-65
2022/09/24 00:58:04;;;;;;;;;;;;;;;;;;350079;28;757;-65
2022/09/24 00:58:15;;;;;;;;;;;;;;;;;;350035;28;995;-64
2022/09/24 00:58:26;;;;;;;;;;;;;;;;;;350031;28;817;-64
2022/09/24 00:58:38;;;;;;;;;;;;;;;;;;350070;28;773;-65
2022/09/24 00:58:51;;;;;;;;;;;;;;;;;;350047;28;1039;-64
2022/09/24 00:59:02;;;;;;;;;;;;;;;;;;350050;28;944;-64
2022/09/24 00:59:17;;;;;;;;;;;;;;;;;;350044;28;973;-64
2022/09/24 00:59:28;;;;;;;;;;;;;;;;;;350053;28;920;-64
2022/09/24 00:59:39;;;;;;;;;;;;;;;;;;350033;28;928;-65
2022/09/24 00:59:50;;;;;;;;;;;;;;;;;;350038;28;924;-65
2022/09/24 01:00:00;;;;;;;;;;;;;;;;;;349970;28;796;-64
2022/09/24 01:00:11;;;;;;;;;;;;;;;;;;350160;28;893;-64
2022/09/24 01:00:22;;;;;;;;;;;;;;;;;;350034;28;991;-64
2022/09/24 01:00:32;;;;;;;;;;;;;;;;;;349969;28;1018;-65
2022/09/24 01:00:43;;;;;;;;;;;;;;;;;;350083;28;750;-64
2022/09/24 01:00:57;;;;;;;;;;;;;;;;;;350063;28;782;-64
2022/09/24 01:01:07;;;;;;;;;;;;;;;;;;350057;28;804;-64
2022/09/24 01:01:20;;;;;;;;;;;;;;;;;;350067;28;845;-64
2022/09/24 01:01:30;;;;;;;;;;;;;;;;;;350031;28;891;-65
2022/09/24 01:01:40;;;;;;;;;;;;;;;;;;350111;28;854;-65
2022/09/24 01:01:52;;;;;;;;;;;;;;;;;;350048;28;916;-64
2022/09/24 01:02:03;;;;;;;;;;;;;;;;;;350091;28;897;-64
2022/09/24 01:02:13;;;;;;;;;;;;;;;;;;350029;28;924;-65
2022/09/24 01:02:24;;;;;;;;;;;;;;;;;;350056;28;1003;-65
2022/09/24 01:02:36;;;;;;;;;;;;;;;;;;350020;28;983;-64
2022/09/24 01:02:47;;;;;;;;;;;;;;;;;;350034;28;1046;-64
2022/09/24 01:03:05;;;;;;;;;;;;;;;;;;350089;28;836;-65
2022/09/24 01:03:18;;;;;;;;;;;;;;;;;;350053;28;908;-64
2022/09/24 01:03:29;;;;;;;;;;;;;;;;;;350018;28;913;-64
2022/09/24 01:03:41;;;;;;;;;;;;;;;;;;350057;28;991;-65
2022/09/24 01:03:52;;;;;;;;;;;;;;;;;;350034;28;1019;-64
2022/09/24 01:04:03;;;;;;;;;;;;;;;;;;350054;28;813;-65
2022/09/24 01:04:15;;;;;;;;;;;;;;;;;;349997;28;956;-64
2022/09/24 01:04:26;;;;;;;;;;;;;;;;;;350121;28;778;-64
2022/09/24 01:04:36;;;;;;;;;;;;;;;;;;350046;28;991;-65
2022/09/24 01:04:47;;;;;;;;;;;;;;;;;;350020;28;1035;-64
2022/09/24 01:04:59;;;;;;;;;;;;;;;;;;349943;28;1284;-64
2022/09/24 01:05:09;;;;;;;;;;;;;;;;;;350045;28;948;-65
2022/09/24 01:05:19;;;;;;;;;;;;;;;;;;350049;28;944;-65
2022/09/24 01:05:30;;;;;;;;;;;;;;;;;;350014;28;968;-64
2022/09/24 01:05:40;;;;;;;;;;;;;;;;;;350071;28;821;-64
2022/09/24 01:05:51;;;;;;;;;;;;;;;;;;349978;28;1044;-65
2022/09/24 01:06:01;;;;;;;;;;;;;;;;;;350070;28;960;-65
2022/09/24 01:06:12;;;;;;;;;;;;;;;;;;350074;28;953;-64
2022/09/24 01:06:23;;;;;;;;;;;;;;;;;;350030;28;946;-64
2022/09/24 01:06:33;;;;;;;;;;;;;;;;;;350053;28;980;-65
2022/09/24 01:06:44;;;;;;;;;;;;;;;;;;350037;28;913;-65
2022/09/24 01:06:55;;;;;;;;;;;;;;;;;;350045;28;888;-64
2022/09/24 01:07:05;;;;;;;;;;;;;;;;;;350017;28;1355;-64
2022/09/24 01:07:15;;;;;;;;;;;;;;;;;;350042;28;1023;-64
2022/09/24 01:07:25;;;;;;;;;;;;;;;;;;350027;28;964;-64
2022/09/24 01:07:36;;;;;;;;;;;;;;;;;;349970;28;1009;-64
2022/09/24 01:07:49;;;;;;;;;;;;;;;;;;350038;28;1082;-64
2022/09/24 01:07:59;;;;;;;;;;;;;;;;;;350110;28;908;-65
2022/09/24 01:08:11;;;;;;;;;;;;;;;;;;350034;28;932;-64
2022/09/24 01:08:22;;;;;;;;;;;;;;;;;;349993;28;972;-65
2022/09/24 01:08:32;;;;;;;;;;;;;;;;;;350008;28;920;-65
2022/09/24 01:08:43;;;;;;;;;;;;;;;;;;348603;28;1382;-64
2022/09/24 01:08:55;;;;;;;;;;;;;;;;;;349898;28;1023;-64
2022/09/24 01:09:05;;;;;;;;;;;;;;;;;;348933;28;1645;-65
2022/09/24 01:09:17;;;;;;;;;;;;;;;;;;350595;28;921;-65
2022/09/24 01:09:28;;;;;;;;;;;;;;;;;;351456;28;988;-64
2022/09/24 01:09:38;;;;;;;;;;;;;;;;;;351424;28;936;-65
2022/09/24 01:09:48;;;;;;;;;;;;;;;;;;351443;28;860;-65
2022/09/24 01:09:58;;;;;;;;;;;;;;;;;;351466;28;1023;-65
2022/09/24 01:10:09;;;;;;;;;;;;;;;;;;351387;28;872;-65
2022/09/24 01:10:58;;;;;;;;;;;;;;;;;;351390;28;940;-65
2022/09/24 01:11:01;;;;;;;;;;;;;;;;;;351004;28;1423;-65
2022/09/24 01:11:17;;;;;;;;;;;;;;;;;;350022;28;1394;-64
2022/09/24 01:11:42;;;;;;;;;;;;;;;;;;349990;28;961;-64
2022/09/24 01:12:11;;;;;;;;;;;;;;;;;;349996;28;933;-65
2022/09/24 01:12:51;;;;;;;;;;;;;;;;;;350003;28;837;-64
2022/09/24 01:13:08;;;;;;;;;;;;;;;;;;350037;28;960;-65
2022/09/24 01:13:27;;;;;;;;;;;;;;;;;;349971;28;956;-65
2022/09/24 01:13:46;;;;;;;;;;;;;;;;;;350055;28;793;-64
2022/09/24 01:14:15;;;;;;;;;;;;;;;;;;350044;28;944;-64
2022/09/24 01:14:25;;;;;;;;;;;;;;;;;;350026;28;1078;-64
2022/09/24 01:14:35;;;;;;;;;;;;;;;;;;349970;28;983;-64
2022/09/24 01:14:48;;;;;;;;;;;;;;;;;;349981;28;1039;-64
2022/09/24 01:15:10;;;;;;;;;;;;;;;;;;350065;28;920;-64
2022/09/24 01:15:24;;;;;;;;;;;;;;;;;;350054;28;979;-64
2022/09/24 01:15:41;;;;;;;;;;;;;;;;;;350085;28;821;-64
2022/09/24 01:15:59;;;;;;;;;;;;;;;;;;348716;28;960;-65
2022/09/24 01:16:10;;;;;;;;;;;;;;;;;;348623;28;937;-65
2022/09/24 01:16:39;;;;;;;;;;;;;;;;;;348681;28;1000;-65
2022/09/24 01:16:52;;;;;;;;;;;;;;;;;;349120;28;1622;-64
2022/09/24 01:17:02;;;;;;;;;;;;;;;;;;349985;28;1099;-64
2022/09/24 01:17:27;;;;;;;;;;;;;;;;;;350011;28;1054;-64
2022/09/24 01:17:38;;;;;;;;;;;;;;;;;;350018;28;924;-65
2022/09/24 01:17:54;;;;;;;;;;;;;;;;;;349996;28;937;-64
2022/09/24 01:18:19;;;;;;;;;;;;;;;;;;350077;28;1102;-64
2022/09/24 01:18:29;;;;;;;;;;;;;;;;;;350032;28;1005;-64
2022/09/24 01:18:50;;;;;;;;;;;;;;;;;;350060;28;1782;-65
2022/09/24 01:19:18;;;;;;;;;;;;;;;;;;349990;28;913;-65
2022/09/24 01:19:29;;;;;;;;;;;;;;;;;;350010;28;952;-64
2022/09/24 01:19:57;;;;;;;;;;;;;;;;;;349994;28;995;-65
2022/09/24 01:20:43;;;;;;;;;;;;;;;;;;350021;28;924;-64
2022/09/24 01:21:09;;;;;;;;;;;;;;;;;;351166;28;967;-64
2022/09/24 01:21:30;;;;;;;;;;;;;;;;;;349863;28;988;-64
2022/09/24 01:21:49;;;;;;;;;;;;;;;;;;349857;28;858;-64
2022/09/24 01:22:12;;;;;;;;;;;;;;;;;;349828;28;976;-64
2022/09/24 01:22:31;;;;;;;;;;;;;;;;;;349840;28;941;-64
2022/09/24 01:22:41;;;;;;;;;;;;;;;;;;351214;28;931;-64
2022/09/24 01:23:04;;;;;;;;;;;;;;;;;;351213;28;995;-64
2022/09/24 01:23:35;;;;;;;;;;;;;;;;;;349994;28;1313;-64
2022/09/24 01:24:00;;;;;;;;;;;;;;;;;;349206;28;937;-65
2022/09/24 01:24:13;;;;;;;;;;;;;;;;;;348652;28;944;-64
2022/09/24 01:24:29;;;;;;;;;;;;;;;;;;348625;28;976;-65
2022/09/24 01:24:45;;;;;;;;;;;;;;;;;;348639;28;976;-64
2022/09/24 01:24:55;;;;;;;;;;;;;;;;;;348575;28;956;-64
2022/09/24 01:25:21;;;;;;;;;;;;;;;;;;348584;28;853;-64
2022/09/24 01:25:31;;;;;;;;;;;;;;;;;;348622;28;996;-64
2022/09/24 01:25:42;;;;;;;;;;;;;;;;;;348712;28;858;-64
2022/09/24 01:26:01;;;;;;;;;;;;;;;;;;348625;28;875;-65
2022/09/24 01:26:31;;;;;;;;;;;;;;;;;;348634;28;963;-64
2022/09/24 01:26:55;;;;;;;;;;;;;;;;;;348625;28;931;-64
2022/09/24 01:27:10;;;;;;;;;;;;;;;;;;348584;28;980;-64
2022/09/24 01:27:27;;;;;;;;;;;;;;;;;;348633;28;877;-64
2022/09/24 01:27:46;;;;;;;;;;;;;;;;;;348653;28;880;-65
2022/09/24 01:27:56;;;;;;;;;;;;;;;;;;348684;28;1042;-65
2022/09/24 01:28:25;;;;;;;;;;;;;;;;;;348586;28;896;-65
2022/09/24 01:28:35;;;;;;;;;;;;;;;;;;348610;28;941;-65
2022/09/24 01:28:47;;;;;;;;;;;;;;;;;;348597;28;979;-65
2022/09/24 01:29:04;;;;;;;;;;;;;;;;;;348625;28;984;-64
2022/09/24 01:29:15;;;;;;;;;;;;;;;;;;348562;28;965;-64
2022/09/24 01:29:40;;;;;;;;;;;;;;;;;;348596;28;937;-65
2022/09/24 01:29:53;;;;;;;;;;;;;;;;;;348648;28;960;-64
2022/09/24 01:30:09;;;;;;;;;;;;;;;;;;348638;28;928;-64
2022/09/24 01:30:19;;;;;;;;;;;;;;;;;;348600;28;960;-64
2022/09/24 01:30:31;;;;;;;;;;;;;;;;;;348573;28;1445;-65
2022/09/24 01:30:41;;;;;;;;;;;;;;;;;;349912;28;1027;-64
2022/09/24 01:30:55;;;;;;;;;;;;;;;;;;350022;28;960;-64
2022/09/24 01:31:21;;;;;;;;;;;;;;;;;;350012;28;1035;-65
2022/09/24 01:31:35;;;;;;;;;;;;;;;;;;349889;28;1125;-65
2022/09/24 01:31:49;;;;;;;;;;;;;;;;;;350009;28;951;-65
2022/09/24 01:32:19;;;;;;;;;;;;;;;;;;349996;28;952;-64
2022/09/24 01:32:38;;;;;;;;;;;;;;;;;;349975;28;991;-64
2022/09/24 01:33:02;;;;;;;;;;;;;;;;;;349989;28;905;-65